Capreol, Canada
Current Conditions -  °F | °C
As of 2:00 PM on Friday 28 Nov 2014 (Local Time) from CYSB Reporting Station
Scattered Clouds Scattered Clouds  
Wind Chill: -3°   Ceiling: Unl
Heat Index:   Visibility: 20mi
Dew Point: -2°   Wind: 6mph
Humidity: 67%   Direction: 250°WSW
Pressure: 30.13"   Gusts: NA
Location:  46.7°N, 80.92°W
Report Text: CYSB 281900Z 25005KT 210V270 20SM FEW010 SCT110 M14/M19 A3013 RMK CF1AC3 SLP238
Loading
Personal Weather Stations






























Interactive Weather Map New forecast layout! Learn more

10-Day Weather Forecast

Advertisements
Track Severe Weather on mobile